Round Rock, Texas
Current Conditions -  °F | °C
As of 10:15 AM on Monday 22 Dec 2014 (Local Time) from KEDC Reporting Station
Clear Clear  
Wind Chill: 17°   Ceiling: Unl
Heat Index: 17°   Visibility: 10mi
Dew Point: 12°   Wind: 10mph
Humidity: 72%   Direction: 210°SSW
Pressure: 29.73"   Gusts: NA
Location:  30.51°N, 97.68°W
Report Text: KEDC 221615Z AUTO 21009KT 10SM CLR 17/12 A2973 RMK AO2
Loading
Personal Weather Stations






























Interactive Weather Map New forecast layout! Learn more

10-Day Weather Forecast

Advertisements
Track Severe Weather on mobile